KDNN/DNN METAR and TAF weather

Enter ICAO airport designator
Station Type Date Time Source
KDNN METAR 2020/04/08 21:35 UTC NOAA

KDNN 082135Z AUTO 22004KT 10SM SCT050 27/13 A2978 RMK AO2


Station Type Date Time Source
KDNN Decoded METAR 2020/04/08 21:35 UTC NOAA

Dalton, Dalton Municipal Airport, GA, United States (KDNN) 34-43-18N 084-52-09W
Apr 08, 2020 - 05:35 PM EDT / 2020.04.08 2135 UTC
Wind: from the SW (220 degrees) at 5 MPH (4 KT):0
Visibility: 10 mile(s):0
Sky conditions: partly cloudy
Temperature: 80 F (27 C)
Dew Point: 55 F (13 C)
Relative Humidity: 41%
Pressure (altimeter): 29.78 in. Hg (1008 hPa)
ob: KDNN 082135Z AUTO 22004KT 10SM SCT050 27/13 A2978 RMK AO2
cycle: 21

Station Type Date Time Source
KDNN TAF UTC NOAA

Error!

Example: see airport list